Chronik & Geschichte

Boeing Stearman am Flugplatz Konstanz

Mit seiner 107-jährigen Geschichte ist Konstanz der älteste Verkehrslandeplatz Deutschlands. Lesen Sie unsere Festschrift zum 100-jährigen Platzjubiläum oder entdecken Sie die ausführliche Flugplatzchronik auf der Website der Initiative PRO Flugplatz Konstanz.

Live am Platz

Die Bilder unserer Webcams werden alle 5 Minuten aktualisiert.

Sonnenaufgang:

06:23 UTC / 07:23 Lokal

Sonnenuntergang:

16:51 UTC / 17:51 Lokal

METAR (17.02.2019 03:50 UTC):

EDNY 170350Z AUTO 06003KT 7000 // NCD M04/M05 Q1028
MVFR

TAF (16.02.2019 23:00 UTC):

TAF EDNY 162300Z 1700/1724 VRB03KT CAVOK PROB30 TEMPO 1700/1708 3000 BCFG

Alle Angaben unverbindlich und ohne Gewähr. Zeiten genähert.

Für den Verkehrslandeplatz Konstanz werden keine offiziellen Wetterinformationen ausgegeben. Daher werden zur Orientierung Daten des nahegelegenen Flughafens Friedrichshafen dargestellt.

Flugwetterdaten zur Verfügung gestellt von wippich.aero.